createdAt,value
2022-12-31T00:02:55.526Z,89.68
2022-12-31T00:05:57.902Z,89.25
2022-12-31T00:09:02.452Z,88.87
2022-12-31T00:12:04.655Z,88.96
2022-12-31T00:15:07.424Z,88.71
2022-12-31T00:18:10.806Z,88.78
2022-12-31T00:21:15.401Z,88.62
2022-12-31T00:24:17.561Z,88.42
2022-12-31T00:27:19.685Z,88.58
2022-12-31T00:30:22.097Z,88.50
2022-12-31T00:33:24.380Z,88.41
2022-12-31T00:36:35.643Z,88.60
2022-12-31T00:39:37.722Z,88.73
2022-12-31T00:42:39.855Z,88.88
2022-12-31T00:45:42.690Z,88.85
2022-12-31T00:48:45.063Z,89.11
2022-12-31T00:51:47.489Z,89.29
2022-12-31T00:54:49.626Z,89.50
2022-12-31T00:57:51.689Z,89.70
2022-12-31T01:00:53.919Z,89.85
2022-12-31T01:04:00.086Z,90.00
2022-12-31T01:07:02.276Z,90.33
2022-12-31T01:10:06.520Z,90.48
2022-12-31T01:13:08.897Z,90.54
2022-12-31T01:16:13.433Z,90.54
2022-12-31T01:19:19.351Z,90.92
2022-12-31T01:22:21.523Z,90.98
2022-12-31T01:25:23.617Z,91.13
2022-12-31T01:28:26.073Z,91.10
2022-12-31T01:31:28.666Z,90.98
2022-12-31T01:34:30.818Z,90.78
2022-12-31T01:37:32.895Z,90.86
2022-12-31T01:40:39.497Z,90.80
2022-12-31T01:43:54.333Z,90.83
2022-12-31T01:47:02.630Z,90.88
2022-12-31T01:50:10.444Z,90.91
2022-12-31T01:53:13.325Z,90.86
2022-12-31T01:56:16.062Z,90.94
2022-12-31T01:59:19.956Z,91.05
2022-12-31T02:02:22.884Z,91.19
2022-12-31T02:05:33.501Z,91.05
2022-12-31T02:08:41.804Z,91.04
2022-12-31T02:11:44.325Z,90.81
2022-12-31T02:14:52.390Z,90.96
2022-12-31T02:18:06.598Z,90.97
2022-12-31T02:21:20.684Z,90.96
2022-12-31T02:24:30.574Z,90.80
2022-12-31T02:27:59.197Z,90.63
2022-12-31T02:31:11.461Z,90.49
2022-12-31T02:34:33.437Z,90.35
2022-12-31T02:37:37.658Z,90.31
2022-12-31T02:40:40.338Z,90.36
2022-12-31T02:43:48.552Z,90.31
2022-12-31T02:47:10.413Z,90.54
2022-12-31T02:50:42.025Z,90.39
2022-12-31T02:53:50.322Z,90.32
2022-12-31T02:57:13.081Z,90.39
2022-12-31T03:00:35.491Z,90.30
2022-12-31T03:03:38.361Z,90.23
2022-12-31T03:06:42.099Z,90.28
2022-12-31T03:09:44.243Z,90.13
2022-12-31T03:12:49.697Z,90.12
2022-12-31T03:15:51.849Z,90.17
2022-12-31T03:19:12.649Z,90.10
2022-12-31T03:22:30.006Z,90.16
2022-12-31T03:25:41.092Z,90.44
2022-12-31T03:28:48.058Z,90.38
2022-12-31T03:31:50.256Z,90.56
2022-12-31T03:34:52.327Z,90.95
2022-12-31T03:37:54.779Z,90.83
2022-12-31T03:40:57.004Z,90.76
2022-12-31T03:43:59.079Z,90.56
2022-12-31T03:47:01.227Z,90.55
2022-12-31T03:50:05.289Z,90.32
2022-12-31T03:53:07.541Z,90.25
2022-12-31T03:56:09.662Z,90.12
2022-12-31T03:59:11.861Z,90.31
2022-12-31T04:02:14.171Z,90.22
2022-12-31T04:05:17.980Z,90.25
2022-12-31T04:08:20.168Z,90.25
2022-12-31T04:11:22.402Z,89.97
2022-12-31T04:14:24.654Z,90.18
2022-12-31T04:17:26.740Z,90.01
2022-12-31T04:20:29.121Z,89.80
2022-12-31T04:23:31.624Z,89.60
2022-12-31T04:26:34.291Z,89.63
2022-12-31T04:29:36.752Z,89.48
2022-12-31T04:32:39.115Z,89.20
2022-12-31T04:35:41.192Z,89.09
2022-12-31T04:38:43.308Z,89.06
2022-12-31T04:41:45.379Z,88.93
2022-12-31T04:44:47.502Z,89.17
2022-12-31T04:47:49.585Z,89.16
2022-12-31T04:50:51.886Z,89.22
2022-12-31T04:53:54.810Z,89.44
2022-12-31T04:56:56.951Z,89.61
2022-12-31T04:59:59.074Z,89.79
2022-12-31T05:03:01.162Z,89.72
2022-12-31T05:06:09.763Z,89.84
2022-12-31T05:09:11.840Z,89.87
2022-12-31T05:12:13.938Z,90.02
2022-12-31T05:15:16.018Z,90.20
2022-12-31T05:18:19.121Z,90.40
2022-12-31T05:21:22.292Z,90.63
2022-12-31T05:24:24.396Z,90.72
2022-12-31T05:27:28.106Z,90.97
2022-12-31T05:30:30.451Z,91.14
2022-12-31T05:33:32.586Z,91.35
2022-12-31T05:36:34.631Z,91.28
2022-12-31T05:39:36.757Z,91.64
2022-12-31T05:42:39.817Z,91.87
2022-12-31T05:45:41.870Z,92.04
2022-12-31T05:48:43.979Z,92.26
2022-12-31T05:51:46.149Z,92.29
2022-12-31T05:54:48.207Z,92.75
2022-12-31T05:57:50.488Z,93.01
2022-12-31T06:00:53.231Z,93.22
2022-12-31T06:03:55.828Z,93.54
2022-12-31T06:06:58.044Z,93.74
2022-12-31T06:10:00.329Z,94.09
2022-12-31T06:13:02.673Z,94.23
2022-12-31T06:16:06.953Z,94.33
2022-12-31T06:19:09.838Z,94.66
2022-12-31T06:22:11.882Z,94.45
2022-12-31T06:25:14.111Z,94.49
2022-12-31T06:28:20.425Z,94.45
2022-12-31T06:31:22.992Z,94.76
2022-12-31T06:34:25.220Z,94.99
2022-12-31T06:37:27.361Z,95.15
2022-12-31T06:40:29.579Z,95.45
2022-12-31T06:43:32.137Z,95.66
2022-12-31T06:46:34.304Z,95.57
2022-12-31T06:49:36.460Z,95.42
2022-12-31T06:52:38.857Z,95.64
2022-12-31T06:55:41.965Z,95.72
2022-12-31T06:58:44.753Z,95.60
2022-12-31T07:02:18.651Z,95.58
2022-12-31T07:05:32.926Z,95.84
2022-12-31T07:08:51.838Z,95.67
2022-12-31T07:12:06.707Z,95.81
2022-12-31T07:15:26.884Z,95.67
2022-12-31T07:18:43.953Z,95.61
2022-12-31T07:21:46.434Z,95.45
2022-12-31T07:24:49.105Z,95.35
2022-12-31T07:28:20.434Z,95.07
2022-12-31T07:31:22.546Z,94.99
2022-12-31T07:34:55.105Z,94.56
2022-12-31T07:38:12.917Z,94.42
2022-12-31T07:41:45.716Z,93.76
2022-12-31T07:44:50.468Z,93.19
2022-12-31T07:47:55.298Z,92.69
2022-12-31T07:51:01.349Z,92.27
2022-12-31T07:54:06.408Z,91.93
2022-12-31T07:57:14.389Z,91.09
2022-12-31T08:00:17.147Z,90.21
2022-12-31T08:03:36.078Z,89.68
2022-12-31T08:06:53.631Z,89.25
2022-12-31T08:10:17.304Z,88.71
2022-12-31T08:13:21.166Z,88.03
2022-12-31T08:16:23.896Z,87.40
2022-12-31T08:19:32.242Z,87.45
2022-12-31T08:23:15.535Z,87.05
2022-12-31T08:26:32.537Z,86.91
2022-12-31T08:30:17.621Z,86.89
2022-12-31T08:33:28.664Z,86.80
2022-12-31T08:36:41.579Z,86.34
2022-12-31T08:40:24.207Z,85.75
2022-12-31T08:43:51.059Z,85.53
2022-12-31T08:47:02.699Z,85.24
2022-12-31T08:50:05.649Z,84.99
2022-12-31T08:53:08.225Z,84.55
2022-12-31T08:56:43.744Z,84.71
2022-12-31T09:00:07.864Z,84.29
2022-12-31T09:03:13.275Z,83.53
2022-12-31T09:06:41.256Z,83.33
2022-12-31T09:09:59.804Z,83.26
2022-12-31T09:13:09.697Z,83.19
2022-12-31T09:16:21.418Z,83.29
2022-12-31T09:19:23.616Z,82.92
2022-12-31T09:22:26.321Z,82.88
2022-12-31T09:25:29.704Z,83.03
2022-12-31T09:28:47.629Z,82.98
2022-12-31T09:31:52.599Z,82.60
2022-12-31T09:35:13.377Z,82.19
2022-12-31T09:38:31.008Z,81.91
2022-12-31T09:42:18.068Z,81.12
2022-12-31T09:45:38.102Z,80.35
2022-12-31T09:49:12.507Z,79.52
2022-12-31T09:53:02.400Z,79.28
2022-12-31T09:56:15.887Z,77.53
2022-12-31T09:59:36.092Z,77.13
2022-12-31T10:02:58.710Z,76.43
2022-12-31T10:06:34.394Z,75.01
2022-12-31T10:09:42.824Z,74.55
2022-12-31T10:13:25.995Z,73.67
2022-12-31T10:16:49.828Z,72.51
2022-12-31T10:20:00.164Z,71.04
2022-12-31T10:23:26.694Z,70.16
2022-12-31T10:26:53.078Z,69.09
2022-12-31T10:30:13.458Z,69.77
2022-12-31T10:33:44.964Z,70.17
2022-12-31T10:36:58.931Z,70.75
2022-12-31T10:40:37.896Z,70.52
2022-12-31T10:44:17.113Z,70.33
2022-12-31T10:47:28.110Z,70.49
2022-12-31T10:51:09.250Z,70.58
2022-12-31T10:54:42.169Z,71.33
2022-12-31T10:58:04.070Z,71.14
2022-12-31T11:01:28.049Z,70.95
2022-12-31T11:05:00.588Z,70.19
2022-12-31T11:08:14.553Z,69.51
2022-12-31T11:11:22.425Z,69.50
2022-12-31T11:14:48.981Z,69.15
2022-12-31T11:17:53.655Z,68.85
2022-12-31T11:21:04.524Z,67.98
2022-12-31T11:24:38.247Z,68.76
2022-12-31T11:27:59.360Z,68.81
2022-12-31T11:31:20.989Z,69.27
2022-12-31T11:34:39.554Z,69.48
2022-12-31T11:37:50.614Z,69.50
2022-12-31T11:41:19.667Z,69.37
2022-12-31T11:44:21.657Z,69.46
2022-12-31T11:51:50.131Z,69.13
2022-12-31T11:55:38.387Z,68.79
2022-12-31T11:58:51.828Z,68.72
2022-12-31T12:02:12.841Z,68.82
2022-12-31T12:05:20.277Z,68.22
2022-12-31T12:08:22.786Z,68.11
2022-12-31T12:11:27.744Z,68.27
2022-12-31T12:14:32.840Z,67.79
2022-12-31T12:17:35.562Z,67.52
2022-12-31T12:20:41.805Z,67.49
2022-12-31T12:24:05.240Z,67.26
2022-12-31T12:27:22.108Z,66.91
2022-12-31T12:30:28.325Z,67.54
2022-12-31T12:33:42.145Z,68.29
2022-12-31T12:36:48.312Z,68.68
2022-12-31T12:40:21.587Z,68.56
2022-12-31T12:43:32.342Z,68.07
2022-12-31T12:46:52.737Z,67.45
2022-12-31T12:49:55.702Z,67.34
2022-12-31T12:52:59.492Z,66.17
2022-12-31T12:56:23.287Z,66.04
2022-12-31T12:59:34.477Z,65.95
2022-12-31T13:02:55.282Z,65.40
2022-12-31T13:06:44.964Z,65.39
2022-12-31T13:09:59.224Z,64.96
2022-12-31T13:13:26.219Z,64.43
2022-12-31T13:16:51.272Z,64.03
2022-12-31T13:20:12.955Z,63.98
2022-12-31T13:23:26.746Z,63.74
2022-12-31T13:27:03.375Z,64.01
2022-12-31T13:30:15.820Z,64.10
2022-12-31T13:33:25.794Z,64.44
2022-12-31T13:36:30.087Z,64.53
2022-12-31T13:39:38.940Z,63.55
2022-12-31T13:42:52.021Z,63.33
2022-12-31T13:46:20.480Z,63.82
2022-12-31T13:49:29.960Z,64.11
2022-12-31T13:52:38.328Z,64.31
2022-12-31T13:55:44.847Z,64.71
2022-12-31T13:58:53.340Z,64.93
2022-12-31T14:02:26.261Z,65.34
2022-12-31T14:05:34.219Z,65.29
2022-12-31T14:08:36.550Z,65.69
2022-12-31T14:12:06.620Z,66.22
2022-12-31T14:15:23.899Z,66.52
2022-12-31T14:18:45.047Z,65.61
2022-12-31T14:22:08.584Z,64.37
2022-12-31T14:25:29.346Z,64.05
2022-12-31T14:28:47.751Z,64.36
2022-12-31T14:31:49.892Z,64.47
2022-12-31T14:35:40.113Z,64.52
2022-12-31T14:39:04.001Z,64.11
2022-12-31T14:42:29.881Z,63.83
2022-12-31T14:46:04.193Z,64.11
2022-12-31T14:49:25.174Z,64.43
2022-12-31T14:52:35.342Z,64.39
2022-12-31T14:55:40.826Z,64.86
2022-12-31T14:58:43.806Z,64.72
2022-12-31T15:01:46.767Z,65.11
2022-12-31T15:04:49.027Z,65.50
2022-12-31T15:08:18.057Z,65.55
2022-12-31T15:11:42.027Z,65.69
2022-12-31T15:14:56.207Z,66.34
2022-12-31T15:18:19.503Z,66.75
2022-12-31T15:21:49.139Z,67.24
2022-12-31T15:24:51.456Z,67.66
2022-12-31T15:27:54.394Z,67.86
2022-12-31T15:31:03.741Z,68.01
2022-12-31T15:34:23.753Z,68.05
2022-12-31T15:37:33.110Z,67.85
2022-12-31T15:40:44.108Z,68.07
2022-12-31T15:43:49.297Z,68.26
2022-12-31T15:47:14.828Z,68.52
2022-12-31T15:50:22.864Z,68.86
2022-12-31T15:53:39.782Z,69.01
2022-12-31T15:56:49.255Z,69.15
2022-12-31T15:59:58.715Z,69.04
2022-12-31T16:03:01.218Z,69.41
2022-12-31T16:06:10.084Z,69.38
2022-12-31T16:09:25.241Z,69.42
2022-12-31T16:12:34.386Z,69.54
2022-12-31T16:15:39.314Z,69.35
2022-12-31T16:18:44.065Z,69.06
2022-12-31T16:21:46.231Z,69.26
2022-12-31T16:25:29.051Z,69.34
2022-12-31T16:28:20.406Z,69.70
2022-12-31T16:31:22.856Z,69.97
2022-12-31T16:34:27.536Z,70.36
2022-12-31T16:37:29.688Z,70.72
2022-12-31T16:40:32.112Z,70.95
2022-12-31T16:43:38.855Z,70.99
2022-12-31T16:46:41.222Z,71.52
2022-12-31T16:49:46.410Z,71.67
2022-12-31T16:52:59.698Z,71.67
2022-12-31T16:56:09.233Z,71.81
2022-12-31T16:59:34.954Z,71.94
2022-12-31T17:02:45.340Z,71.94
2022-12-31T17:06:06.325Z,71.43
2022-12-31T17:09:20.937Z,71.36
2022-12-31T17:12:24.977Z,70.99
2022-12-31T17:15:38.260Z,70.81
2022-12-31T17:18:44.115Z,70.91
2022-12-31T17:21:48.750Z,70.92
2022-12-31T17:24:51.809Z,70.77
2022-12-31T17:28:03.811Z,71.20
2022-12-31T17:31:28.262Z,71.09
2022-12-31T17:34:50.782Z,71.25
2022-12-31T17:37:52.988Z,71.42
2022-12-31T17:40:57.747Z,71.65
2022-12-31T17:43:59.978Z,71.90
2022-12-31T17:47:03.470Z,72.07
2022-12-31T17:50:09.817Z,72.01
2022-12-31T17:53:12.965Z,72.08
2022-12-31T17:56:18.776Z,72.26
2022-12-31T17:59:23.932Z,72.60
2022-12-31T18:02:26.372Z,72.88
2022-12-31T18:05:28.670Z,72.96
2022-12-31T18:08:30.895Z,73.04
2022-12-31T18:11:33.777Z,72.90
2022-12-31T18:14:36.077Z,72.84
2022-12-31T18:17:38.481Z,72.79
2022-12-31T18:20:40.594Z,73.01
2022-12-31T18:23:48.398Z,73.04
2022-12-31T18:26:51.213Z,73.05
2022-12-31T18:29:54.270Z,73.00
2022-12-31T18:32:58.792Z,73.10
2022-12-31T18:36:09.586Z,73.02
2022-12-31T18:39:12.369Z,73.20
2022-12-31T18:42:17.188Z,73.31
2022-12-31T18:45:20.997Z,73.36
2022-12-31T18:48:23.080Z,73.41
2022-12-31T18:51:31.276Z,73.46
2022-12-31T18:54:34.087Z,73.31
2022-12-31T18:57:36.198Z,73.38
2022-12-31T19:00:38.622Z,73.44
2022-12-31T19:03:40.833Z,73.34
2022-12-31T19:06:43.172Z,73.29
2022-12-31T19:09:46.806Z,73.31
2022-12-31T19:12:50.366Z,73.12
2022-12-31T19:15:53.502Z,72.98
2022-12-31T19:18:55.627Z,72.82
2022-12-31T19:21:57.945Z,72.95
2022-12-31T19:25:00.033Z,72.86
2022-12-31T19:28:03.813Z,73.04
2022-12-31T19:31:06.599Z,73.30
2022-12-31T19:34:08.784Z,73.53
2022-12-31T19:37:16.849Z,73.71
2022-12-31T19:40:22.746Z,73.66
2022-12-31T19:43:25.076Z,73.72
2022-12-31T19:46:27.908Z,73.88
2022-12-31T19:49:30.035Z,73.85
2022-12-31T19:52:32.121Z,74.07
2022-12-31T19:55:34.248Z,74.19
2022-12-31T19:58:36.387Z,74.26
2022-12-31T20:01:38.718Z,74.57
2022-12-31T20:04:41.144Z,74.61
2022-12-31T20:07:43.536Z,74.77
2022-12-31T20:10:46.318Z,74.89
2022-12-31T20:13:49.792Z,75.11
2022-12-31T20:16:52.745Z,75.21
2022-12-31T20:19:55.147Z,75.18
2022-12-31T20:22:58.320Z,75.46
2022-12-31T20:26:01.641Z,75.68
2022-12-31T20:29:03.811Z,75.78
2022-12-31T20:32:06.940Z,76.02
2022-12-31T20:35:09.259Z,76.35
2022-12-31T20:38:11.355Z,76.25
2022-12-31T20:41:15.794Z,76.41
2022-12-31T20:44:18.107Z,76.39
2022-12-31T20:47:20.447Z,76.52
2022-12-31T20:50:22.833Z,76.68
2022-12-31T20:53:24.966Z,76.87
2022-12-31T20:56:29.735Z,76.95
2022-12-31T20:59:32.024Z,77.00
2022-12-31T21:02:43.280Z,76.99
2022-12-31T21:05:53.762Z,76.83
2022-12-31T21:08:57.894Z,76.84
2022-12-31T21:12:19.497Z,76.84
2022-12-31T21:15:21.911Z,76.94
2022-12-31T21:18:24.068Z,76.92
2022-12-31T21:21:26.226Z,76.95
2022-12-31T21:24:28.385Z,76.86
2022-12-31T21:27:31.030Z,76.86
2022-12-31T21:30:33.752Z,76.99
2022-12-31T21:33:35.888Z,77.12
2022-12-31T21:36:38.073Z,77.29
2022-12-31T21:39:40.631Z,77.13
2022-12-31T21:42:42.991Z,76.66
2022-12-31T21:45:45.182Z,76.36
2022-12-31T21:48:47.478Z,76.01
2022-12-31T21:52:08.150Z,76.28
2022-12-31T21:55:30.623Z,76.35
2022-12-31T21:58:33.497Z,76.29
2022-12-31T22:01:54.139Z,76.50
2022-12-31T22:05:06.879Z,76.49
2022-12-31T22:08:14.850Z,76.87
2022-12-31T22:11:18.752Z,76.76
2022-12-31T22:14:20.957Z,76.44
2022-12-31T22:17:23.181Z,76.51
2022-12-31T22:20:28.006Z,76.08
2022-12-31T22:23:31.344Z,76.26
2022-12-31T22:26:33.559Z,76.31
2022-12-31T22:29:35.784Z,76.36
2022-12-31T22:32:38.059Z,76.51
2022-12-31T22:35:40.221Z,76.63
2022-12-31T22:38:42.781Z,76.70
2022-12-31T22:41:46.591Z,76.54
2022-12-31T22:44:48.657Z,76.57
2022-12-31T22:47:51.033Z,76.65
2022-12-31T22:50:57.553Z,76.77
2022-12-31T22:53:59.738Z,76.93
2022-12-31T22:57:01.892Z,76.95
2022-12-31T23:00:10.134Z,77.27
2022-12-31T23:03:12.989Z,77.32
2022-12-31T23:06:15.673Z,77.28
2022-12-31T23:09:36.755Z,77.26
2022-12-31T23:12:38.958Z,77.33
2022-12-31T23:16:03.672Z,77.53
2022-12-31T23:19:25.868Z,77.46
2022-12-31T23:22:46.496Z,77.82
2022-12-31T23:25:51.128Z,77.79
2022-12-31T23:28:54.557Z,77.77
2022-12-31T23:31:59.051Z,77.91
2022-12-31T23:35:09.341Z,78.08
2022-12-31T23:38:14.437Z,77.87
2022-12-31T23:41:21.135Z,77.85
2022-12-31T23:44:24.719Z,77.77
2022-12-31T23:47:28.647Z,77.78
2022-12-31T23:50:32.537Z,77.77
2022-12-31T23:53:39.142Z,77.22
2022-12-31T23:56:43.191Z,76.99
2022-12-31T23:59:46.800Z,76.75
